Flight Track Log - Related Links

Times and Time Zones

All times are in EDT time to prevent confusion due to time zone crossing. See the KCE2 flight status page for this flight to view local times or setup timezone preferences in your user account.

Time Position Orientation Groundspeed Altitude Reporting Facility
EDT Latitude Longitude Course Direction KTS MPH feet Rate Location/Type
Sun 04:34:32 PM 45.2050 -66.1180 248° West 272 313 12,500  Level FlightAware ADS-B
Sun 04:35:17 PM 45.1840 -66.1950 249° West 276 318 15,400 3,600 Climbing FlightAware ADS-B
Sun 04:35:57 PM 45.1660 -66.2610 249° West 280 322 17,600 3,450 Climbing FlightAware ADS-B
Sun 04:36:37 PM 45.1470 -66.3310 249° West 282 325 20,000 3,247 Climbing FlightAware ADS-B
Sun 04:37:22 PM 45.1250 -66.4100 248° West 291 335 22,200 2,682 Climbing FlightAware ADS-B
Sun 04:38:02 PM 45.1000 -66.4800 243° Southwest 294 338 23,800 2,329 Climbing FlightAware ADS-B
Sun 04:38:47 PM 45.0670 -66.5550 238° Southwest 310 357 25,500 2,118 Climbing FlightAware ADS-B
Sun 04:39:27 PM 45.0350 -66.6280 238° Southwest 327 376 26,800 1,950 Climbing FlightAware ADS-B
Sun 04:40:07 PM 45.0110 -66.7090 247° West 345 397 28,100 2,047 Climbing FlightAware ADS-B
Sun 04:40:52 PM 44.9850 -66.8050 249° West 344 396 29,700 1,976 Climbing FlightAware ADS-B
Sun 04:41:32 PM 44.9610 -66.8890 248° West 350 403 30,900 1,976 Climbing FlightAware ADS-B
Sun 04:42:17 PM 44.9340 -66.9850 248° West 347 399 32,500 2,047 Climbing FlightAware ADS-B
Sun 04:42:57 PM 44.9110 -67.0690 249° West 344 396 33,800 2,025 Climbing FlightAware ADS-B
Sun 04:43:37 PM 44.8880 -67.1520 249° West 337 388 35,200 1,694 Climbing FlightAware ADS-B
Sun 04:44:22 PM 44.8610 -67.2440 248° West 344 396 36,200 1,341 Climbing FlightAware ADS-B
Sun 04:45:02 PM 44.8370 -67.3290 248° West 346 398 37,100 1,341 Climbing FlightAware ADS-B
Sun 04:45:47 PM 44.8110 -67.4220 249° West 345 397 38,100 1,271 Climbing FlightAware ADS-B
Sun 04:46:27 PM 44.7870 -67.5050 248° West 341 392 38,900 1,275 Climbing FlightAware ADS-B
Sun 04:47:07 PM 44.7640 -67.5860 248° West 332 382 39,800 776 Climbing FlightAware ADS-B
Sun 04:47:52 PM 44.7370 -67.6790 248° West 346 398 40,000 141 Climbing FlightAware ADS-B
Sun 04:48:32 PM 44.7130 -67.7640 248° West 356 410 40,000  Level FlightAware ADS-B
Sun 04:49:12 PM 44.6880 -67.8490 248° West 359 413 40,000  Level FlightAware ADS-B
Sun 04:49:57 PM 44.6590 -67.9480 248° West 363 418 40,000  Level FlightAware ADS-B
Sun 04:50:37 PM 44.6340 -68.0360 248° West 362 417 40,000  Level FlightAware ADS-B
Sun 04:51:22 PM 44.6050 -68.1350 248° West 361 415 40,000  Level FlightAware ADS-B
Sun 04:52:02 PM 44.5790 -68.2210 247° West 362 417 40,000  Level FlightAware ADS-B
Sun 04:52:47 PM 44.5500 -68.3210 248° West 366 421 40,000  Level FlightAware ADS-B
Sun 04:53:27 PM 44.5240 -68.4090 248° West 368 423 40,000  Level FlightAware ADS-B
Sun 04:54:12 PM 44.4950 -68.5070 247° West 369 425 40,000  Level FlightAware ADS-B
Sun 04:54:52 PM 44.4680 -68.5980 247° West 370 426 40,000  Level FlightAware ADS-B
Sun 04:55:32 PM 44.4410 -68.6870 247° West 372 428 40,000  Level FlightAware ADS-B
Sun 04:56:17 PM 44.4110 -68.7860 247° West 374 430 40,000  Level FlightAware ADS-B
Sun 04:56:57 PM 44.3870 -68.8660 247° West 376 433 40,000  Level FlightAware ADS-B
Sun 04:57:37 PM 44.3590 -68.9590 247° West 376 433 40,000  Level FlightAware ADS-B
Sun 04:58:22 PM 44.3300 -69.0550 247° West 376 433 40,000  Level FlightAware ADS-B
Sun 04:59:02 PM 44.3000 -69.1540 247° West 377 434 40,000  Level FlightAware ADS-B
Sun 04:59:42 PM 44.2720 -69.2440 247° West 378 435 40,000  Level FlightAware ADS-B
Sun 05:00:27 PM 44.2430 -69.3380 247° West 376 433 40,000  Level FlightAware ADS-B
Sun 05:01:07 PM 44.2150 -69.4320 247° West 375 432 40,000  Level FlightAware ADS-B
Sun 05:01:52 PM 44.1840 -69.5320 247° West 373 429 40,000  Level FlightAware ADS-B
Sun 05:02:32 PM 44.1560 -69.6200 246° West 374 430 40,000  Level FlightAware ADS-B
Sun 05:03:17 PM 44.1260 -69.7180 247° West 374 430 40,000  Level FlightAware ADS-B
Sun 05:03:57 PM 44.0980 -69.8050 246° West 374 430 40,000  Level FlightAware ADS-B
Sun 05:04:32 PM 44.0740 -69.8830 247° West 374 430 40,000  Level FlightAware ADS-B
Sun 05:05:22 PM 44.0390 -69.9950 247° West 375 432 40,000  Level FlightAware ADS-B
Sun 05:06:02 PM 44.0110 -70.0840 246° West 377 434 40,000  Level FlightAware ADS-B
Sun 05:06:47 PM 43.9800 -70.1820 246° West 379 436 40,000  Level FlightAware ADS-B
Sun 05:07:27 PM 43.9510 -70.2710 246° West 379 436 40,000  Level FlightAware ADS-B
Sun 05:08:12 PM 43.9190 -70.3730 246° West 380 437 40,000  Level FlightAware ADS-B
Sun 05:08:52 PM 43.8900 -70.4620 246° West 381 438 40,000  Level FlightAware ADS-B
Sun 05:09:32 PM 43.8620 -70.5500 246° West 380 437 40,000  Level FlightAware ADS-B
Sun 05:10:17 PM 43.8300 -70.6490 246° West 379 436 40,000  Level FlightAware ADS-B
Sun 05:10:57 PM 43.8020 -70.7360 246° West 377 434 40,000  Level FlightAware ADS-B
Sun 05:11:37 PM 43.7730 -70.8250 246° West 377 434 40,000  Level FlightAware ADS-B
Sun 05:12:22 PM 43.7400 -70.9260 246° West 376 433 40,000  Level FlightAware ADS-B
Sun 05:13:02 PM 43.7120 -71.0130 246° West 376 433 40,000  Level FlightAware ADS-B
Sun 05:13:47 PM 43.6800 -71.1100 246° West 377 434 40,000  Level FlightAware ADS-B
Sun 05:14:27 PM 43.6510 -71.1950 245° Southwest 379 436 40,000 -525 Level FlightAware ADS-B
Sun 05:15:07 PM 43.6230 -71.2830 246° West 373 429 39,300 -1,624 Descending FlightAware ADS-B
Sun 05:15:52 PM 43.5900 -71.3810 245° Southwest 370 426 37,700 -2,047 Descending FlightAware ADS-B
Sun 05:16:32 PM 43.5610 -71.4680 245° Southwest 371 427 36,400 -1,906 Descending FlightAware ADS-B
Sun 05:17:17 PM 43.5290 -71.5640 245° Southwest 377 434 35,000 -1,976 Descending FlightAware ADS-B
Sun 05:17:57 PM 43.5000 -71.6510 245° Southwest 378 435 33,600 -2,047 Descending FlightAware ADS-B
Sun 05:18:42 PM 43.4660 -71.7510 245° Southwest 363 418 32,100 -1,976 Descending FlightAware ADS-B
Sun 05:19:22 PM 43.4390 -71.8320 245° Southwest 364 419 30,800 -1,950 Descending FlightAware ADS-B
Sun 05:20:02 PM 43.4100 -71.9170 245° Southwest 374 430 29,500 -1,976 Descending FlightAware ADS-B
Sun 05:20:47 PM 43.3770 -72.0150 245° Southwest 380 437 28,000 -1,976 Descending FlightAware ADS-B
Sun 05:21:27 PM 43.3480 -72.1010 245° Southwest 380 437 26,700 -1,976 Descending FlightAware ADS-B
Sun 05:22:12 PM 43.3140 -72.1990 245° Southwest 363 418 25,200 -1,906 Descending FlightAware ADS-B
Sun 05:22:52 PM 43.2860 -72.2810 245° Southwest 350 403 24,000 -1,835 Descending FlightAware ADS-B
Sun 05:23:37 PM 43.2560 -72.3690 245° Southwest 342 394 22,600 -1,800 Descending FlightAware ADS-B
Sun 05:24:12 PM 43.2310 -72.4390 244° Southwest 333 383 21,600 -1,650 Descending FlightAware ADS-B
Sun 05:24:57 PM 43.2030 -72.5220 245° Southwest 325 374 20,400 -1,600 Descending FlightAware ADS-B
Sun 05:25:42 PM 43.1740 -72.6050 244° Southwest 326 375 19,200 -1,575 Descending FlightAware ADS-B
Sun 05:26:17 PM 43.1530 -72.6670 245° Southwest 333 383 18,300 -675 Descending FlightAware ADS-B
Sun 05:27:02 PM 43.1250 -72.7440 244° Southwest 333 383 18,300  Level FlightAware ADS-B
Sun 05:27:42 PM 43.1020 -72.8090 244° Southwest 333 383 18,300  Level FlightAware ADS-B
Sun 05:28:22 PM 43.0790 -72.8730 244° Southwest 333 383 18,300  Level FlightAware ADS-B
Sun 05:29:12 PM 43.0500 -72.9540 244° Southwest 333 383 18,300  Level FlightAware ADS-B
Sun 05:29:52 PM 43.0270 -73.0180 244° Southwest 333 383 18,300 -5,097 Level FlightAware ADS-B
Sun 05:30:45 PM 42.9794 -73.1608 244° Southwest 281 323 10,400 -7,114 Descending Boston Center
Sun 05:31:02 PM 42.9689 -73.1836 238° Southwest 296 341 10,000 -1,967 Descending Boston Center
Sun 05:31:46 PM 42.9456 -73.2514 245° Southwest 260 299 8,400 -1,800 Descending Boston Center
Sun 05:32:02 PM 42.9414 -73.2625 243° Southwest 274 315 8,200 -1,574 Descending Boston Center
Sun 05:32:47 PM 42.9178 -73.3358 246° West 246 283 6,800 -1,800 Descending Boston Center
Sun 05:33:02 PM 42.9094 -73.3556 240° Southwest 256 295 6,400 -1,300 Descending Boston Center
Sun 05:33:47 PM 42.8858 -73.4206 244° Southwest 246 283 5,500 -1,200 Descending Boston Center
Sun 05:34:02 PM 42.8817 -73.4347 248° West 256 295 5,200 -1,120 Descending Boston Center
Sun 05:35:02 PM 42.8453 -73.5331 243° Southwest 263 303 4,100 -1,062 Descending Boston Center
Sun 05:35:55 PM 42.8092 -73.6061 236° Southwest 261 300 3,200 -850 Descending Boston Center
Sun 05:37:02 PM 42.7583 -73.6758 225° Southwest 258 297 2,400 -709 Descending Boston Center
Sun 05:38:02 PM 42.7306 -73.7347 237° Southwest 217 250 1,700 -700 Descending Boston Center

Login

Don't have an account? Register now (free) for customized features, flight alerts, and more!